• Join FlightAware (Why Join?)
  • Login
  • US Flag 
05:55PM EDT


 

Airport Tracker/Info


-or-


 

Live Flight TrackerFlight Track Log ✈ AWE1171 ✈ 20-Aug-2014 ✈ KDFW - KBHM

Flight Track Log - Related Links

Times and Time Zones

All times are in EDT time to prevent confusion due to time zone crossing. See the AWE1171 flight status page for this flight to view local times or setup timezone preferences in your user account.

Time Position Orientation Groundspeed Altitude Reporting Facility
EDT Latitude Longitude Course Direction KTS MPH feet Rate Location/Type
09:50PM 32.8833 -97.0333 175° South 157 181 1,200  Level Dallas / Fort Worth TRACON
09:51PM 32.8217 -97.0269 175° South 195 224 4,100 2,220 Climbing Fort Worth Center
09:53PM 32.7642 -96.9772 144° Southeast 254 292 6,700 2,700 Climbing Fort Worth Center
09:54PM 32.7728 -96.8822 84° East 292 336 9,700 3,000 Climbing Fort Worth Center
09:55PM 32.7914 -96.7758 78° East 308 354 12,900 2,340 Climbing Fort Worth Center
09:56PM 32.8106 -96.6647 78° East 345 397 14,500 2,040 Climbing Fort Worth Center
09:57PM 32.8328 -96.5272 79° East 395 455 17,200 2,580 Climbing Fort Worth Center
09:58PM 32.8550 -96.3972 78° East 400 460 19,800 2,220 Climbing Fort Worth Center
09:59PM 32.8728 -96.2617 81° East 412 474 21,800 1,860 Climbing Fort Worth Center
10:00PM 32.8908 -96.1236 81° East 428 493 23,700 1,800 Climbing Fort Worth Center
10:01PM 32.9089 -95.9817 81° East 430 495 25,500 1,620 Climbing Fort Worth Center
10:02PM 32.9261 -95.8353 82° East 444 511 27,100 1,560 Climbing Fort Worth Center
10:03PM 32.9439 -95.6875 82° East 452 520 28,800 1,680 Climbing Fort Worth Center
10:04PM 32.9614 -95.5383 82° East 453 521 30,600 1,680 Climbing Fort Worth Center
10:05PM 32.9783 -95.3944 82° East 446 513 32,300 1,140 Climbing Fort Worth Center
10:06PM 32.9981 -95.2292 82° East 445 512 33,000 300 Climbing Fort Worth Center
10:07PM 33.0153 -95.0808 82° East 449 517 33,000  Level Fort Worth Center
10:08PM 33.0317 -94.9331 82° East 451 519 33,000 -300 Level Fort Worth Center
10:09PM 33.0483 -94.7853 82° East 451 519 32,400 -660 Descending Fort Worth Center
10:10PM 33.0642 -94.6381 83° East 451 519 31,700 -720 Descending Fort Worth Center
10:11PM 33.0786 -94.4919 83° East 450 518 31,000 -360 Descending Fort Worth Center
10:12PM 33.0981 -94.3167 82° East 449 517 31,000  Level Fort Worth Center
10:13PM 33.1125 -94.1700 83° East 449 517 31,000  Level Fort Worth Center
10:14PM 33.1278 -94.0219 83° East 454 522 31,000  Level Fort Worth Center
10:15PM 33.1442 -93.8733 82° East 459 528 31,000  Level Fort Worth Center
10:16PM 33.1586 -93.7250 83° East 459 528 31,000  Level Fort Worth Center
10:17PM 33.1742 -93.5792 83° East 444 511 31,000  Level Fort Worth Center
10:18PM 33.1914 -93.4011 83° East 452 520 31,000  Level Fort Worth Center
10:19PM 33.2061 -93.2550 83° East 448 516 31,000  Level Fort Worth Center
10:21PM 33.2361 -92.9578 83° East 452 520 31,000  Level Fort Worth Center
10:22PM 33.2500 -92.8106 84° East 450 518 31,000  Level Fort Worth Center
10:23PM 33.2636 -92.6631 84° East 449 517 31,000  Level Fort Worth Center
10:25PM 33.2942 -92.3406 83° East 449 517 31,000  Level Memphis Center
10:26PM 33.3064 -92.1931 84° East 449 517 31,000  Level Memphis Center
10:27PM 33.3181 -92.0439 85° East 449 517 31,000  Level Memphis Center
10:28PM 33.3333 -91.8939 83° East 451 519 31,000  Level Memphis Center
10:29PM 33.3464 -91.7442 84° East 452 520 31,000  Level Memphis Center
10:30PM 33.3597 -91.5778 84° East 453 521 31,000  Level Memphis Center
10:31PM 33.3725 -91.4283 84° East 456 525 31,000  Level Memphis Center
10:32PM 33.3844 -91.2783 85° East 456 525 31,000  Level Memphis Center
10:33PM 33.3964 -91.1311 84° East 454 522 31,000  Level Memphis Center
10:34PM 33.4097 -90.9811 84° East 454 522 31,000  Level Memphis Center
10:35PM 33.4211 -90.8325 85° East 454 522 31,000  Level Memphis Center
10:36PM 33.4325 -90.6806 85° East 455 524 31,000  Level Memphis Center
10:38PM 33.4444 -90.5297 85° East 455 524 31,000  Level Memphis Center
10:39PM 33.4581 -90.3475 85° East 456 525 31,000  Level Memphis Center
10:40PM 33.4656 -90.1942 87° East 460 529 31,000  Level Memphis Center
10:41PM 33.4683 -90.0414 89° East 460 529 31,000  Level Memphis Center
10:42PM 33.4706 -89.8872 89° East 460 529 31,000  Level Memphis Center
10:43PM 33.4728 -89.7336 89° East 461 531 31,000  Level Memphis Center
10:44PM 33.4753 -89.5783 89° East 461 531 31,000  Level Memphis Center
10:45PM 33.4769 -89.4272 89° East 461 531 31,000  Level Memphis Center
10:46PM 33.4781 -89.2742 89° East 461 531 31,000  Level Memphis Center
10:47PM 33.4808 -89.1231 89° East 461 531 31,000 -480 Level Memphis Center
10:48PM 33.4825 -88.9375 89° East 461 531 30,100 -1,320 Descending Memphis Center
10:49PM 33.4828 -88.7850 90° East 461 531 28,300 -2,340 Descending Memphis Center
10:50PM 33.4850 -88.6294 89° East 465 535 25,400 -2,640 Descending Memphis Center
10:51PM 33.4872 -88.4717 89° East 474 545 23,000 -1,740 Descending Memphis Center
10:52PM 33.5061 -88.3311 81° East 444 511 21,900 -1,140 Descending Memphis Center
10:53PM 33.5239 -88.1892 81° East 431 496 20,700 -1,380 Descending Memphis Center
10:54PM 33.5397 -88.0531 82° East 421 484 19,200 -1,620 Descending Memphis Center
10:55PM 33.5556 -87.9183 82° East 415 478 17,400 -1,860 Descending Memphis Center
10:56PM 33.5708 -87.7894 82° East 400 460 15,500 -1,920 Descending Memphis Center
10:57PM 33.5847 -87.6631 82° East 390 449 13,500 -1,920 Descending Memphis Center
10:58PM 33.6019 -87.5153 82° East 378 435 11,600 -1,380 Descending Memphis Center
10:59PM 33.6142 -87.3989 83° East 362 417 10,800 -900 Descending Memphis Center
10:59PM 33.6186 -87.3392 85° East 346 398 10,300 -720 Descending Atlanta Center
11:00PM 33.6208 -87.3292 75° East 355 409 10,300 -600 Level Atlanta Center
11:01PM 33.6339 -87.2300 81° East 323 372 9,600 -1,200 Descending Atlanta Center
11:01PM 33.6397 -87.1653 84° East 282 325 8,400 -1,620 Descending Atlanta Center
11:02PM 33.6425 -87.1353 84° East 299 344 8,000 -1,680 Descending Atlanta Center
11:02PM 33.6483 -87.0733 84° East 283 326 6,700 -1,800 Descending Atlanta Center
11:03PM 33.6533 -87.0433 79° East 287 330 6,200 -2,040 Descending Atlanta Center
11:03PM 33.6550 -86.9661 88° East 273 314 4,500 -1,920 Descending Atlanta Center
11:04PM 33.6597 -86.9514 69° East 277 319 4,300 -1,560 Descending Atlanta Center
11:04PM 33.6611 -86.8889 88° East 270 311 3,100 -1,320 Descending Atlanta Center
11:05PM 33.6639 -86.8642 82° East 272 313 3,000 -120 Descending Atlanta Center
11:05PM 33.6672 -86.8044 86° East 239 275 3,000  Level Atlanta Center
11:06PM 33.6697 -86.7819 82° East 265 305 3,000  Level Atlanta Center
11:06PM 33.6733 -86.7222 86° East 226 260 3,000  Level Atlanta Center
11:07PM 33.6778 -86.7047 73° East 243 280 3,000  Level Atlanta Center
11:07PM 33.6894 -86.6528 75° East 215 247 3,000  Level Atlanta Center
11:08PM 33.6925 -86.5956 86° East 193 222 3,000  Level Atlanta Center
11:09PM 33.6400 -86.6189 200° South 192 221 3,000 -420 Level Atlanta Center
11:10PM 33.6181 -86.6656 241° Southwest 161 185 2,200 -780 Descending Atlanta Center
11:11PM 33.5944 -86.7022 232° Southwest 134 154 1,500 -720 Descending Atlanta Center